Time;durP1;ratioP1;P1;durP2;ratioP2;P2;SDS_P1;SDS_P2;PMS_P1;PMS_P2;Temp;Humidity;BMP_temperature;BMP_pressure;BME280_temperature;BME280_humidity;BME280_pressure;Samples;Min_cycle;Max_cycle;Signal;HPM_P1;HPM_P2
2022/04/03 00:01:26;;;;;;;2.97;2.53;;;2.40;99.90;;;;;;5094832;28;20434;-87
2022/04/03 00:03:53;;;;;;;2.30;2.07;;;2.30;99.90;;;;;;5094381;28;20430;-90
2022/04/03 00:06:20;;;;;;;3.57;2.20;;;2.40;99.90;;;;;;5094017;28;20552;-89
2022/04/03 00:08:48;;;;;;;3.50;2.90;;;2.30;99.90;;;;;;5094587;28;20442;-83
2022/04/03 00:11:15;;;;;;;5.78;4.43;;;2.20;99.90;;;;;;5093649;28;20436;-84
2022/04/03 00:13:43;;;;;;;7.60;5.00;;;2.30;99.90;;;;;;5093964;28;20273;-83
2022/04/03 00:16:11;;;;;;;5.70;4.37;;;2.50;99.90;;;;;;5093602;28;20449;-86
2022/04/03 00:18:45;;;;;;;8.07;3.37;;;2.50;99.90;;;;;;5094007;28;20475;-88
2022/04/03 00:21:15;;;;;;;4.27;3.50;;;2.40;99.90;;;;;;5094104;28;20450;-85
2022/04/03 00:23:44;;;;;;;5.20;2.80;;;2.50;99.90;;;;;;5093944;28;20421;-83
2022/04/03 00:26:11;;;;;;;4.93;2.90;;;2.20;99.90;;;;;;5093953;28;20441;-84
2022/04/03 00:28:39;;;;;;;4.87;2.70;;;2.20;99.90;;;;;;5092653;28;20978;-84
2022/04/03 00:31:09;;;;;;;3.30;2.57;;;2.30;99.90;;;;;;5093867;28;20426;-84
2022/04/03 00:33:36;;;;;;;3.30;3.00;;;2.20;99.90;;;;;;5093716;28;20493;-85
2022/04/03 00:36:04;;;;;;;5.67;3.23;;;2.30;99.90;;;;;;5093382;28;20454;-84
2022/04/03 00:38:31;;;;;;;4.83;2.90;;;2.30;99.90;;;;;;5094144;28;20434;-80
2022/04/03 00:41:01;;;;;;;4.03;2.87;;;2.30;99.90;;;;;;5093542;28;20963;-85
2022/04/03 00:43:28;;;;;;;2.80;2.57;;;2.10;99.90;;;;;;5093539;28;20445;-83
2022/04/03 00:46:01;;;;;;;3.83;2.97;;;2.00;99.90;;;;;;5092386;28;21019;-84
2022/04/03 00:48:28;;;;;;;3.40;2.80;;;2.10;99.90;;;;;;5092959;28;20457;-83
2022/04/03 00:50:56;;;;;;;3.30;2.93;;;2.00;99.90;;;;;;5093619;28;20430;-85
2022/04/03 00:53:27;;;;;;;4.97;3.00;;;2.00;99.90;;;;;;5093666;28;20434;-82
2022/04/03 00:55:57;;;;;;;5.93;3.40;;;1.90;99.90;;;;;;5093559;28;20912;-81
2022/04/03 00:58:26;;;;;;;4.70;2.93;;;1.80;99.90;;;;;;5093509;28;20457;-82
2022/04/03 01:00:59;;;;;;;4.50;3.38;;;1.70;99.90;;;;;;5096476;28;20426;-86
2022/04/03 01:03:28;;;;;;;3.67;2.73;;;1.60;99.90;;;;;;5097522;28;20201;-83
2022/04/03 01:05:56;;;;;;;4.93;2.80;;;1.70;99.90;;;;;;5097881;28;20497;-85
2022/04/03 01:08:23;;;;;;;5.60;3.17;;;1.80;99.90;;;;;;5097402;28;20438;-84
2022/04/03 01:10:57;;;;;;;5.90;3.00;;;1.80;99.90;;;;;;5097806;28;20426;-89
2022/04/03 01:13:26;;;;;;;4.13;2.80;;;1.80;99.90;;;;;;5097821;28;20923;-89
2022/04/03 01:15:59;;;;;;;3.07;2.80;;;1.70;99.90;;;;;;5097827;28;20528;-90
2022/04/03 01:18:27;;;;;;;2.83;2.57;;;1.60;99.90;;;;;;5097329;28;20449;-86
2022/04/03 01:21:00;;;;;;;3.03;2.63;;;1.80;99.90;;;;;;5097367;28;20438;-86
2022/04/03 01:23:30;;;;;;;4.07;2.70;;;1.60;99.90;;;;;;5096417;28;20911;-90
2022/04/03 01:25:59;;;;;;;3.20;2.83;;;1.60;99.90;;;;;;5097338;28;20491;-85
2022/04/03 01:28:27;;;;;;;4.60;2.83;;;1.50;99.90;;;;;;5096927;28;20465;-85
2022/04/03 01:30:55;;;;;;;4.07;2.80;;;1.40;99.90;;;;;;5095692;28;20446;-88
2022/04/03 01:33:28;;;;;;;3.17;2.87;;;1.40;99.90;;;;;;5096860;28;20545;-84
2022/04/03 01:36:04;;;;;;;3.43;3.13;;;1.40;99.90;;;;;;5096535;28;20467;-86
2022/04/03 01:38:32;;;;;;;4.40;3.20;;;1.50;99.90;;;;;;5097146;28;20440;-88
2022/04/03 01:41:00;;;;;;;7.07;4.03;;;1.50;99.90;;;;;;5097372;28;20430;-88
2022/04/03 01:43:27;;;;;;;4.60;2.90;;;1.50;99.90;;;;;;5097251;28;20446;-90
2022/04/03 01:45:54;;;;;;;2.87;2.60;;;1.40;99.90;;;;;;5096740;28;20453;-87
2022/04/03 01:48:27;;;;;;;6.73;3.20;;;1.30;99.90;;;;;;5097132;28;20442;-89
2022/04/03 01:50:54;;;;;;;2.80;2.60;;;1.30;99.90;;;;;;5096898;28;20432;-87
2022/04/03 01:53:26;;;;;;;5.23;3.07;;;1.30;99.90;;;;;;5097466;28;20460;-88
2022/04/03 01:56:04;;;;;;;3.80;3.10;;;1.30;99.90;;;;;;5096794;28;20432;-84
2022/04/03 01:58:35;;;;;;;3.70;3.40;;;1.30;99.90;;;;;;5096662;28;20452;-86
2022/04/03 02:01:04;;;;;;;3.93;3.23;;;1.30;99.90;;;;;;5096318;28;20437;-87
2022/04/03 02:03:33;;;;;;;5.63;3.53;;;1.30;99.90;;;;;;5096507;28;20925;-87
2022/04/03 02:06:03;;;;;;;8.80;3.40;;;1.20;99.90;;;;;;5096440;28;20441;-87
2022/04/03 02:08:31;;;;;;;5.73;4.00;;;1.20;99.90;;;;;;5096522;28;20459;-86
2022/04/03 02:11:09;;;;;;;6.83;3.00;;;1.20;99.90;;;;;;5096678;28;20437;-89
2022/04/03 02:13:39;;;;;;;6.43;3.17;;;1.10;99.90;;;;;;5096801;28;20452;-89
2022/04/03 02:16:12;;;;;;;4.90;3.87;;;1.30;99.90;;;;;;5095151;28;20916;-89
2022/04/03 02:18:40;;;;;;;3.27;2.80;;;1.50;99.90;;;;;;5096254;28;20664;-89
2022/04/03 02:21:07;;;;;;;5.87;4.00;;;1.50;99.90;;;;;;5096426;28;20418;-89
2022/04/03 02:23:37;;;;;;;5.87;4.23;;;1.50;99.90;;;;;;5095089;28;20487;-87
2022/04/03 02:26:11;;;;;;;5.50;4.13;;;1.50;99.90;;;;;;5096025;28;20526;-88
2022/04/03 02:28:41;;;;;;;7.57;4.87;;;1.40;99.90;;;;;;5096253;28;20466;-86
2022/04/03 02:31:11;;;;;;;6.13;4.77;;;1.30;99.90;;;;;;5094934;28;20441;-87
2022/04/03 02:33:39;;;;;;;7.27;5.10;;;1.30;99.90;;;;;;5096184;28;20440;-86
2022/04/03 02:36:07;;;;;;;7.63;5.27;;;1.20;99.90;;;;;;5094737;28;20438;-85
2022/04/03 02:38:38;;;;;;;5.40;4.37;;;1.20;99.90;;;;;;5095904;28;20452;-87
2022/04/03 02:41:05;;;;;;;5.70;4.27;;;1.20;99.90;;;;;;5094867;28;20806;-89
2022/04/03 02:43:34;;;;;;;4.63;3.80;;;1.20;99.90;;;;;;5095912;28;20499;-90
2022/04/03 02:46:04;;;;;;;5.40;3.97;;;1.20;99.90;;;;;;5095865;28;20488;-89
2022/04/03 02:48:33;;;;;;;5.27;3.63;;;1.20;99.90;;;;;;5095745;28;20421;-90
2022/04/03 02:51:06;;;;;;;5.10;3.13;;;1.30;99.90;;;;;;5095997;28;20540;-87
2022/04/03 02:53:34;;;;;;;7.93;2.90;;;1.40;99.90;;;;;;5096075;28;20460;-89
2022/04/03 02:56:02;;;;;;;4.87;3.43;;;1.30;99.90;;;;;;5095552;28;20486;-85
2022/04/03 02:58:30;;;;;;;3.87;3.50;;;1.10;99.90;;;;;;5095124;28;20876;-87
2022/04/03 03:01:00;;;;;;;5.93;3.13;;;1.10;99.90;;;;;;5095508;28;20436;-87
2022/04/03 03:03:28;;;;;;;2.80;2.60;;;1.10;99.90;;;;;;5095262;28;20442;-86
2022/04/03 03:05:55;;;;;;;4.87;3.30;;;1.10;99.90;;;;;;5095363;28;20450;-88
2022/04/03 03:08:22;;;;;;;7.43;3.20;;;1.00;99.90;;;;;;5095554;28;20430;-87
2022/04/03 03:10:49;;;;;;;3.10;2.77;;;1.00;99.90;;;;;;5095586;28;20442;-90
2022/04/03 03:13:19;;;;;;;5.20;3.17;;;1.10;99.90;;;;;;5095575;28;20602;-86
2022/04/03 03:15:48;;;;;;;6.23;3.23;;;1.10;99.90;;;;;;5095162;28;20976;-87
2022/04/03 03:18:22;;;;;;;5.07;2.70;;;1.20;99.90;;;;;;5095265;28;20450;-89
2022/04/03 03:20:51;;;;;;;4.57;3.20;;;1.10;99.90;;;;;;5094248;28;20449;-87
2022/04/03 03:23:18;;;;;;;5.40;3.27;;;1.10;99.90;;;;;;5094949;28;20512;-88
2022/04/03 03:25:46;;;;;;;3.03;2.73;;;1.20;99.90;;;;;;5095063;28;20834;-87
2022/04/03 03:28:14;;;;;;;5.23;2.90;;;1.20;99.90;;;;;;5094620;28;20441;-87
2022/04/03 03:30:43;;;;;;;5.20;2.60;;;1.30;99.90;;;;;;5094578;28;20525;-88
2022/04/03 03:33:15;;;;;;;3.67;3.23;;;1.20;99.90;;;;;;5094794;28;20517;-87
2022/04/03 03:35:49;;;;;;;4.00;2.67;;;1.10;99.90;;;;;;5094647;28;20976;-85
2022/04/03 03:38:16;;;;;;;3.80;2.70;;;1.10;99.90;;;;;;5094781;28;20456;-87
2022/04/03 03:40:45;;;;;;;4.17;3.10;;;0.90;99.90;;;;;;5094767;28;20445;-85
2022/04/03 03:43:15;;;;;;;4.13;3.07;;;1.20;99.90;;;;;;5094690;28;20434;-88
2022/04/03 03:45:43;;;;;;;5.43;3.47;;;1.20;99.90;;;;;;5094190;28;20453;-89
2022/04/03 03:48:11;;;;;;;4.53;3.10;;;1.20;99.90;;;;;;5094646;28;20429;-85
2022/04/03 03:50:39;;;;;;;4.43;3.17;;;1.30;99.90;;;;;;5094705;28;20654;-84
2022/04/03 03:53:07;;;;;;;4.07;2.83;;;1.10;99.90;;;;;;5094640;28;20453;-88
2022/04/03 03:55:35;;;;;;;6.93;2.90;;;1.20;99.90;;;;;;5094167;28;21002;-85
2022/04/03 03:58:04;;;;;;;3.93;3.50;;;1.40;99.90;;;;;;5094078;28;20928;-87
2022/04/03 04:00:37;;;;;;;4.63;2.80;;;1.30;99.90;;;;;;5094270;28;20442;-85
2022/04/03 04:03:10;;;;;;;3.73;3.03;;;1.20;99.90;;;;;;5094293;28;20449;-88
2022/04/03 04:05:41;;;;;;;3.27;2.60;;;1.30;99.90;;;;;;5094302;28;20437;-87
2022/04/03 04:08:15;;;;;;;4.43;3.03;;;1.30;99.90;;;;;;5094463;28;20442;-84
2022/04/03 04:10:47;;;;;;;3.23;2.93;;;1.30;99.90;;;;;;5094387;28;20433;-87
2022/04/03 04:13:20;;;;;;;4.87;3.07;;;1.30;99.90;;;;;;5094302;28;20438;-88
2022/04/03 04:15:50;;;;;;;6.80;2.80;;;1.40;99.90;;;;;;5093308;28;20481;-87
2022/04/03 04:18:18;;;;;;;4.97;2.90;;;1.40;99.90;;;;;;5094256;28;20426;-89
2022/04/03 04:20:46;;;;;;;4.23;2.90;;;1.50;99.90;;;;;;5094345;28;20439;-87
2022/04/03 04:23:16;;;;;;;6.43;3.23;;;1.60;99.90;;;;;;5094304;28;20453;-88
2022/04/03 04:25:44;;;;;;;7.30;3.80;;;1.50;99.90;;;;;;5093571;28;20513;-86
2022/04/03 04:28:17;;;;;;;6.80;2.93;;;1.60;99.90;;;;;;5093980;28;20811;-87
2022/04/03 04:30:44;;;;;;;5.63;3.53;;;1.60;99.90;;;;;;5092807;28;21028;-87
2022/04/03 04:33:17;;;;;;;4.23;2.90;;;1.50;99.90;;;;;;5094087;28;20433;-87
2022/04/03 04:35:50;;;;;;;9.30;3.43;;;1.70;99.90;;;;;;5097581;28;20489;-87
2022/04/03 04:38:21;;;;;;;5.63;2.90;;;1.70;99.90;;;;;;5098151;28;20529;-83
2022/04/03 04:40:51;;;;;;;4.93;3.43;;;1.70;99.90;;;;;;5098224;28;20784;-87
2022/04/03 04:43:24;;;;;;;2.93;2.63;;;1.60;99.90;;;;;;5098211;28;20434;-86
2022/04/03 04:45:51;;;;;;;6.50;3.13;;;1.60;99.90;;;;;;5097859;28;20450;-87
2022/04/03 04:48:18;;;;;;;7.37;3.10;;;1.50;99.90;;;;;;5098341;28;20449;-88
2022/04/03 04:50:45;;;;;;;4.67;2.63;;;1.50;99.90;;;;;;5098249;28;20441;-89
2022/04/03 04:53:12;;;;;;;4.37;3.13;;;1.50;99.90;;;;;;5097930;28;20453;-88
2022/04/03 04:55:42;;;;;;;3.70;3.07;;;1.40;99.90;;;;;;5098390;28;20482;-87
2022/04/03 04:58:09;;;;;;;5.03;3.03;;;1.50;99.90;;;;;;5098039;28;20464;-88
2022/04/03 05:00:36;;;;;;;4.77;3.13;;;1.50;99.90;;;;;;5097021;28;20461;-87
2022/04/03 05:03:04;;;;;;;6.47;3.40;;;1.50;99.90;;;;;;5108076;28;20467;-86
2022/04/03 05:05:35;;;;;;;4.33;3.00;;;1.40;99.90;;;;;;5117715;28;20460;-85
2022/04/03 05:08:06;;;;;;;7.27;3.30;;;1.30;99.90;;;;;;5117085;28;21058;-86
2022/04/03 05:10:35;;;;;;;6.75;4.05;;;1.30;99.90;;;;;;5116311;28;20435;-87
2022/04/03 05:13:11;;;;;;;4.77;3.40;;;1.20;99.90;;;;;;5118063;28;20553;-88
2022/04/03 05:15:39;;;;;;;7.33;3.20;;;1.10;99.90;;;;;;5117763;28;20476;-85
2022/04/03 05:18:08;;;;;;;6.43;3.53;;;1.10;99.90;;;;;;5117848;28;20445;-89
2022/04/03 05:20:35;;;;;;;11.73;4.03;;;0.90;99.90;;;;;;5116333;28;20445;-86
2022/04/03 05:23:02;;;;;;;5.73;3.47;;;1.00;99.90;;;;;;5117452;28;20463;-85
2022/04/03 05:25:34;;;;;;;3.83;3.43;;;0.80;99.90;;;;;;5117302;28;20428;-89
2022/04/03 05:28:08;;;;;;;10.97;3.87;;;0.70;99.90;;;;;;5117457;28;20447;-89
2022/04/03 05:30:38;;;;;;;6.73;3.60;;;0.80;99.90;;;;;;5117611;28;20444;-90
2022/04/03 05:33:06;;;;;;;4.43;3.47;;;0.70;99.90;;;;;;5117613;28;20433;-87
2022/04/03 05:35:39;;;;;;;7.05;4.53;;;0.60;99.90;;;;;;5116484;28;20441;-89
2022/04/03 05:38:08;;;;;;;7.17;4.63;;;0.90;99.90;;;;;;5117430;28;20203;-89
2022/04/03 05:40:35;;;;;;;5.80;3.93;;;0.70;99.90;;;;;;5117471;28;20938;-85
2022/04/03 05:43:08;;;;;;;7.03;4.57;;;0.70;99.90;;;;;;5117727;28;20914;-86
2022/04/03 05:45:38;;;;;;;7.93;4.30;;;0.70;99.90;;;;;;5116578;28;20935;-89
2022/04/03 05:48:05;;;;;;;7.93;5.63;;;0.80;99.90;;;;;;5117162;28;20491;-87
2022/04/03 05:50:32;;;;;;;7.93;4.77;;;0.80;99.90;;;;;;5116943;28;20456;-88
2022/04/03 05:53:06;;;;;;;5.73;4.47;;;0.90;99.90;;;;;;5117105;28;20456;-88
2022/04/03 05:55:35;;;;;;;7.23;4.77;;;0.80;99.90;;;;;;5116637;28;20483;-88
2022/04/03 05:58:03;;;;;;;5.87;4.23;;;0.70;99.90;;;;;;5116974;28;20453;-87
2022/04/03 06:00:32;;;;;;;5.77;4.50;;;0.70;99.90;;;;;;5116741;28;20518;-86
2022/04/03 06:03:02;;;;;;;8.10;4.10;;;0.70;99.90;;;;;;5117242;28;20445;-86
2022/04/03 06:05:31;;;;;;;6.93;4.30;;;0.70;99.90;;;;;;5116766;28;20456;-88
2022/04/03 06:07:59;;;;;;;6.50;4.27;;;0.70;99.90;;;;;;5117079;28;20516;-85
2022/04/03 06:10:27;;;;;;;10.10;3.90;;;0.70;99.90;;;;;;5116864;28;20432;-85
2022/04/03 06:12:56;;;;;;;6.03;3.80;;;0.80;99.90;;;;;;5116530;28;20440;-88
2022/04/03 06:15:34;;;;;;;8.00;4.47;;;0.90;99.90;;;;;;5116615;28;20475;-89
2022/04/03 06:18:04;;;;;;;7.10;4.30;;;1.00;99.90;;;;;;5116499;28;20437;-88
2022/04/03 06:20:33;;;;;;;7.33;3.97;;;1.10;99.90;;;;;;5116434;28;20444;-87
2022/04/03 06:23:02;;;;;;;7.97;4.10;;;1.10;99.90;;;;;;5116365;28;20448;-87
2022/04/03 06:25:31;;;;;;;6.97;4.87;;;1.20;99.90;;;;;;5116521;28;20444;-86
2022/04/03 06:27:59;;;;;;;8.20;4.50;;;1.30;99.90;;;;;;5116484;28;20437;-87
2022/04/03 06:30:27;;;;;;;7.50;4.50;;;1.30;99.90;;;;;;5116570;28;20445;-86
2022/04/03 06:33:01;;;;;;;5.90;4.07;;;1.40;99.90;;;;;;5116464;28;20425;-87
2022/04/03 06:35:30;;;;;;;5.00;4.60;;;1.30;99.90;;;;;;5115820;28;20491;-86
2022/04/03 06:38:03;;;;;;;10.13;4.90;;;1.40;99.90;;;;;;5116132;28;20425;-85
2022/04/03 06:40:33;;;;;;;7.50;4.10;;;1.40;99.90;;;;;;5116347;28;20429;-86
2022/04/03 06:43:02;;;;;;;5.97;3.97;;;1.60;99.90;;;;;;5116258;28;20445;-87
2022/04/03 06:45:31;;;;;;;7.17;4.17;;;1.70;99.90;;;;;;5114634;28;20457;-88
2022/04/03 06:47:58;;;;;;;6.83;4.40;;;1.80;99.90;;;;;;5116076;28;20440;-86
2022/04/03 06:50:27;;;;;;;9.50;5.47;;;1.90;99.90;;;;;;5115930;28;20541;-87
2022/04/03 06:52:53;;;;;;;9.43;5.83;;;2.00;99.90;;;;;;5112622;28;20445;-88
2022/04/03 06:55:21;;;;;;;8.90;5.87;;;2.10;99.90;;;;;;5111954;28;20433;-83
2022/04/03 06:57:48;;;;;;;8.93;6.40;;;2.20;99.90;;;;;;5116064;28;20428;-83
2022/04/03 07:00:16;;;;;;;10.63;5.77;;;2.30;99.90;;;;;;5111171;28;20498;-85
2022/04/03 07:02:43;;;;;;;7.13;5.20;;;2.40;99.90;;;;;;5117096;28;20437;-85
2022/04/03 07:05:10;;;;;;;6.63;4.97;;;2.40;99.90;;;;;;5118906;28;20443;-86
2022/04/03 07:07:45;;;;;;;7.53;4.83;;;2.50;99.90;;;;;;5124936;28;20506;-86
2022/04/03 07:10:14;;;;;;;5.83;4.43;;;2.60;99.90;;;;;;5116909;28;20459;-84
2022/04/03 07:12:42;;;;;;;5.77;3.80;;;2.80;99.90;;;;;;5115328;28;20445;-82
2022/04/03 07:15:12;;;;;;;5.90;4.88;;;2.90;99.90;;;;;;5114476;28;20417;-87
2022/04/03 07:17:39;;;;;;;8.37;4.33;;;3.20;99.90;;;;;;5109332;28;20247;-90
2022/04/03 07:20:07;;;;;;;8.20;3.77;;;3.40;99.90;;;;;;5103996;28;20827;-87
2022/04/03 07:22:34;;;;;;;5.60;4.27;;;3.50;99.90;;;;;;5103818;28;20441;-89
2022/04/03 07:25:04;;;;;;;4.33;3.43;;;3.50;99.90;;;;;;5103511;28;20457;-87
2022/04/03 07:27:32;;;;;;;7.10;3.10;;;3.70;99.90;;;;;;5103153;28;20438;-88
2022/04/03 07:30:00;;;;;;;5.23;4.10;;;3.70;99.90;;;;;;5111415;28;20526;-88
2022/04/03 07:32:27;;;;;;;6.80;3.30;;;3.60;99.90;;;;;;5096819;28;20438;-86
2022/04/03 07:34:54;;;;;;;7.23;3.13;;;3.60;99.90;;;;;;5104984;28;20444;-86
2022/04/03 07:37:22;;;;;;;4.90;3.13;;;3.80;99.90;;;;;;5099766;28;20484;-86
2022/04/03 07:39:51;;;;;;;8.70;3.97;;;4.00;99.90;;;;;;5095398;28;20438;-87
2022/04/03 07:42:19;;;;;;;5.47;3.20;;;4.30;99.90;;;;;;5098515;28;20445;-89
2022/04/03 07:44:47;;;;;;;7.13;3.00;;;4.30;99.90;;;;;;5103353;28;20443;-90
2022/04/03 07:47:17;;;;;;;3.73;2.27;;;4.20;99.90;;;;;;5105107;28;20429;-89
2022/04/03 07:49:44;;;;;;;3.40;2.13;;;4.00;99.90;;;;;;5102529;28;20434;-88
2022/04/03 07:52:11;;;;;;;4.67;2.23;;;4.20;99.90;;;;;;5105306;28;20441;-90
2022/04/03 07:54:40;;;;;;;3.37;2.40;;;4.30;99.90;;;;;;5100770;28;20469;-90
2022/04/03 07:57:10;;;;;;;4.00;2.57;;;4.40;99.90;;;;;;5104535;28;20481;-89
2022/04/03 07:59:42;;;;;;;4.73;2.87;;;4.40;99.90;;;;;;5104166;28;20423;-89
2022/04/03 08:02:10;;;;;;;5.07;3.00;;;4.50;99.90;;;;;;5106013;28;20434;-90
2022/04/03 08:04:38;;;;;;;5.57;3.50;;;4.50;99.90;;;;;;5104871;28;20469;-89
2022/04/03 08:07:07;;;;;;;2.73;2.30;;;4.60;99.90;;;;;;5100236;28;20430;-88
2022/04/03 08:09:37;;;;;;;3.13;2.63;;;4.60;99.90;;;;;;5104769;28;21003;-90
2022/04/03 08:12:05;;;;;;;2.53;1.97;;;4.80;99.90;;;;;;5099262;28;20947;-87
2022/04/03 08:14:38;;;;;;;6.30;2.97;;;4.60;99.90;;;;;;5103638;28;20433;-85
2022/04/03 08:17:07;;;;;;;4.50;2.93;;;4.60;99.90;;;;;;5093292;28;20573;-89
2022/04/03 08:19:36;;;;;;;2.90;2.60;;;4.70;99.90;;;;;;5094093;28;20452;-90
2022/04/03 08:22:03;;;;;;;2.50;2.30;;;4.70;99.90;;;;;;5093988;28;20453;-89
2022/04/03 08:24:32;;;;;;;3.40;2.63;;;4.70;99.90;;;;;;5093809;28;20433;-91
2022/04/03 08:26:59;;;;;;;3.57;2.27;;;4.80;99.90;;;;;;5093917;28;20442;-89
2022/04/03 08:29:28;;;;;;;3.00;2.77;;;5.00;99.90;;;;;;5094047;28;20798;-89
2022/04/03 08:31:57;;;;;;;3.53;2.33;;;5.00;99.90;;;;;;5093932;28;20814;-88
2022/04/03 08:34:26;;;;;;;3.20;2.67;;;5.10;99.90;;;;;;5094579;28;20442;-86
2022/04/03 08:36:54;;;;;;;3.77;2.70;;;5.00;99.90;;;;;;5105479;28;20481;-83
2022/04/03 08:39:21;;;;;;;3.43;2.63;;;5.10;99.90;;;;;;5103493;28;20530;-87
2022/04/03 08:41:54;;;;;;;2.67;2.13;;;5.10;99.90;;;;;;5093886;28;20499;-88
2022/04/03 08:44:21;;;;;;;4.13;2.60;;;5.10;99.90;;;;;;5093783;28;20524;-79
2022/04/03 08:46:49;;;;;;;2.93;2.30;;;5.50;99.90;;;;;;5093833;28;20208;-85
2022/04/03 08:49:19;;;;;;;6.37;3.40;;;5.60;99.90;;;;;;5092534;28;20774;-84
2022/04/03 08:51:50;;;;;;;2.30;2.20;;;5.60;99.90;;;;;;5093436;28;20258;-82
2022/04/03 08:54:21;;;;;;;2.30;2.07;;;5.60;99.90;;;;;;5093472;28;20430;-87
2022/04/03 08:56:49;;;;;;;2.63;1.60;;;5.40;99.90;;;;;;5093719;28;20576;-89
2022/04/03 08:59:17;;;;;;;2.53;1.80;;;5.60;99.90;;;;;;5093438;28;20190;-85
2022/04/03 09:01:49;;;;;;;2.10;1.80;;;5.60;99.90;;;;;;5093502;28;20201;-87
2022/04/03 09:04:20;;;;;;;2.57;1.93;;;5.60;99.90;;;;;;5093339;28;20652;-86
2022/04/03 09:06:59;;;;;;;2.47;1.90;;;5.70;99.90;;;;;;5094258;28;20220;-86
2022/04/03 09:09:28;;;;;;;2.17;1.63;;;5.70;99.90;;;;;;5095156;28;20209;-84
2022/04/03 09:12:08;;;;;;;3.70;2.10;;;5.70;99.90;;;;;;5104300;28;20196;-86
2022/04/03 09:14:36;;;;;;;1.70;1.57;;;6.00;99.90;;;;;;5113370;28;20203;-84
2022/04/03 09:17:03;;;;;;;4.03;1.97;;;6.20;99.90;;;;;;5113115;28;20232;-84
2022/04/03 09:19:33;;;;;;;3.47;1.40;;;6.30;99.90;;;;;;5109605;28;20204;-85
2022/04/03 09:22:01;;;;;;;1.37;1.27;;;6.30;99.90;;;;;;5104651;28;20624;-83
2022/04/03 09:24:29;;;;;;;2.63;1.50;;;6.30;99.90;;;;;;5104663;28;20198;-84
2022/04/03 09:27:00;;;;;;;1.50;1.40;;;6.40;99.90;;;;;;5107307;28;20195;-86
2022/04/03 09:29:27;;;;;;;2.87;1.60;;;6.40;99.90;;;;;;5096887;28;20286;-85
2022/04/03 09:31:59;;;;;;;4.53;1.40;;;6.40;99.90;;;;;;5097251;28;20224;-84
2022/04/03 09:34:30;;;;;;;2.50;1.50;;;6.40;99.90;;;;;;5111400;28;20197;-83
2022/04/03 09:37:05;;;;;;;2.30;1.70;;;6.60;99.90;;;;;;5111046;27;20675;-86
2022/04/03 09:39:33;;;;;;;2.10;1.23;;;6.60;99.90;;;;;;5117700;28;20219;-86
2022/04/03 09:42:02;;;;;;;1.93;1.77;;;6.50;99.90;;;;;;5116895;28;20200;-87
2022/04/03 09:44:31;;;;;;;1.70;1.60;;;6.50;99.90;;;;;;5115619;28;20215;-86
2022/04/03 09:47:16;;;;;;;2.30;1.43;;;6.60;99.90;;;;;;5117034;28;20200;-84
2022/04/03 09:49:46;;;;;;;4.93;2.03;;;6.40;99.90;;;;;;5116911;28;20201;-83
2022/04/03 09:52:33;;;;;;;2.43;1.70;;;6.60;99.90;;;;;;5116804;28;20196;-84
2022/04/03 09:55:00;;;;;;;2.83;1.40;;;6.60;99.90;;;;;;5117427;28;20238;-87
2022/04/03 09:57:26;;;;;;;1.60;1.50;;;7.00;99.90;;;;;;5117612;28;20235;-84
2022/04/03 09:59:55;;;;;;;2.10;1.70;;;7.20;99.90;;;;;;5117446;28;20207;-83
2022/04/03 10:02:24;;;;;;;1.93;1.47;;;7.10;99.90;;;;;;5117642;28;20188;-86
2022/04/03 10:04:53;;;;;;;2.73;1.50;;;7.10;99.90;;;;;;5117301;28;20200;-84
2022/04/03 10:07:23;;;;;;;2.47;1.40;;;7.10;99.90;;;;;;5111250;28;20296;-82
2022/04/03 10:09:51;;;;;;;1.60;1.40;;;6.90;99.90;;;;;;5100528;28;20437;-84
2022/04/03 10:12:21;;;;;;;1.67;1.50;;;6.90;99.90;;;;;;5113235;28;20200;-86
2022/04/03 10:14:54;;;;;;;1.73;1.63;;;7.20;99.90;;;;;;5118507;28;20193;-90
2022/04/03 10:17:22;;;;;;;3.17;2.00;;;7.30;99.90;;;;;;5119131;28;20220;-87
2022/04/03 10:19:52;;;;;;;2.10;1.60;;;7.40;99.90;;;;;;5106029;28;20192;-87
2022/04/03 10:22:26;;;;;;;2.10;1.20;;;7.60;99.90;;;;;;5099766;28;20719;-83
2022/04/03 10:24:56;;;;;;;3.03;1.47;;;7.70;99.90;;;;;;5105059;28;20188;-85
2022/04/03 10:27:27;;;;;;;1.57;1.37;;;7.60;99.90;;;;;;5116213;28;20192;-85
2022/04/03 10:29:57;;;;;;;2.00;1.33;;;7.70;99.10;;;;;;5116866;28;20221;-85
2022/04/03 10:32:28;;;;;;;1.60;1.40;;;7.90;97.90;;;;;;5115126;28;20820;-83
2022/04/03 10:34:58;;;;;;;3.20;1.50;;;7.90;98.40;;;;;;5112076;28;20201;-84
2022/04/03 10:37:31;;;;;;;2.60;1.40;;;8.10;99.00;;;;;;5116206;28;20231;-85
2022/04/03 10:40:04;;;;;;;2.93;1.70;;;7.70;98.70;;;;;;5116013;28;20808;-86
2022/04/03 10:42:31;;;;;;;1.60;1.50;;;7.60;99.10;;;;;;5115662;28;20197;-85
2022/04/03 10:45:19;;;;;;;2.67;1.70;;;7.80;99.80;;;;;;5115253;28;20216;-83
2022/04/03 10:47:47;;;;;;;2.43;1.53;;;8.20;99.30;;;;;;5115750;28;20251;-83
2022/04/03 10:50:17;;;;;;;3.50;1.63;;;8.20;98.80;;;;;;5115672;28;20188;-85
2022/04/03 10:53:01;;;;;;;1.90;1.60;;;8.40;98.70;;;;;;5115762;28;20193;-86
2022/04/03 10:55:37;;;;;;;2.73;1.30;;;8.20;97.60;;;;;;5102742;28;20545;-84
2022/04/03 10:58:17;;;;;;;2.40;1.63;;;8.50;98.00;;;;;;5093529;28;20534;-83
2022/04/03 11:00:44;;;;;;;1.40;1.10;;;8.90;97.20;;;;;;5105892;28;20200;-85
2022/04/03 11:03:35;;;;;;;1.57;1.07;;;8.80;97.00;;;;;;5099774;28;20197;-83
2022/04/03 11:06:27;;;;;;;3.80;1.40;;;8.50;97.40;;;;;;5094937;28;20189;-84
2022/04/03 11:09:06;;;;;;;2.53;1.40;;;8.30;97.20;;;;;;5094791;28;20196;-82
2022/04/03 11:11:59;;;;;;;1.40;1.23;;;8.80;97.10;;;;;;5094557;28;20208;-83
2022/04/03 11:14:49;;;;;;;3.77;1.20;;;8.70;97.20;;;;;;5094358;28;20219;-84
2022/04/03 11:17:15;;;;;;;4.13;1.70;;;8.50;96.90;;;;;;5094152;28;20694;-84
2022/04/03 11:19:44;;;;;;;3.53;1.30;;;8.20;96.60;;;;;;5094643;28;20679;-80
2022/04/03 11:22:15;;;;;;;1.80;1.20;;;8.30;97.00;;;;;;5094493;28;20197;-82
2022/04/03 11:24:43;;;;;;;1.53;1.30;;;8.30;96.50;;;;;;5094604;28;20194;-82
2022/04/03 11:27:14;;;;;;;1.77;1.20;;;8.40;96.90;;;;;;5094283;28;20208;-85
2022/04/03 11:29:41;;;;;;;1.93;1.40;;;8.60;96.40;;;;;;5094337;28;20304;-82
2022/04/03 11:32:10;;;;;;;1.27;1.10;;;8.60;96.30;;;;;;5093904;28;20208;-84
2022/04/03 11:34:37;;;;;;;2.20;1.10;;;8.20;96.30;;;;;;5094773;28;20659;-85
2022/04/03 11:37:08;;;;;;;2.60;1.10;;;8.40;96.60;;;;;;5094431;28;20232;-87
2022/04/03 11:39:37;;;;;;;4.33;1.47;;;8.50;96.10;;;;;;5094523;28;20215;-78
2022/04/03 11:42:08;;;;;;;3.43;2.00;;;8.40;96.20;;;;;;5093662;28;20212;-79
2022/04/03 11:44:36;;;;;;;1.00;0.90;;;8.50;96.70;;;;;;5093455;28;20655;-82
2022/04/03 11:47:06;;;;;;;1.37;1.20;;;8.80;96.60;;;;;;5094404;28;20291;-78
2022/04/03 11:49:36;;;;;;;2.10;1.10;;;8.90;96.80;;;;;;5093752;28;20196;-82
2022/04/03 11:52:09;;;;;;;1.63;1.10;;;8.80;96.90;;;;;;5093643;28;20240;-79
2022/04/03 11:54:36;;;;;;;1.13;1.10;;;8.90;96.40;;;;;;5093331;28;20201;-77
2022/04/03 11:57:07;;;;;;;1.30;1.13;;;8.80;97.60;;;;;;5093451;28;20224;-75
2022/04/03 11:59:35;;;;;;;1.70;1.07;;;8.80;97.70;;;;;;5093429;28;20190;-78
2022/04/03 12:02:10;;;;;;;1.07;1.03;;;8.80;98.00;;;;;;5093533;28;20209;-77
2022/04/03 12:04:43;;;;;;;1.73;1.17;;;8.70;98.00;;;;;;5093595;28;20200;-76
2022/04/03 12:07:13;;;;;;;1.90;1.20;;;8.70;97.90;;;;;;5092166;28;20421;-79
2022/04/03 12:09:41;;;;;;;1.30;1.03;;;8.80;97.90;;;;;;5093147;28;20201;-80
2022/04/03 12:12:10;;;;;;;2.27;1.47;;;8.80;97.90;;;;;;5093472;28;20262;-80
2022/04/03 12:14:41;;;;;;;1.00;1.00;;;8.60;97.60;;;;;;5093198;28;20201;-78
2022/04/03 12:17:10;;;;;;;2.90;0.87;;;8.60;97.40;;;;;;5093648;28;20224;-80
2022/04/03 12:19:40;;;;;;;2.33;0.90;;;8.90;97.50;;;;;;5093683;28;20197;-80
2022/04/03 12:22:10;;;;;;;0.90;0.90;;;8.90;96.90;;;;;;5093059;28;20664;-80
2022/04/03 12:24:39;;;;;;;1.13;1.00;;;8.90;97.00;;;;;;5093261;28;20254;-78
2022/04/03 12:27:12;;;;;;;1.70;0.80;;;8.80;96.90;;;;;;5093463;28;20246;-78
2022/04/03 12:29:42;;;;;;;1.98;1.20;;;8.90;96.30;;;;;;5092591;28;20836;-82
2022/04/03 12:32:12;;;;;;;2.57;1.00;;;9.10;97.00;;;;;;5093361;28;20208;-81
2022/04/03 12:34:41;;;;;;;2.17;1.10;;;9.10;96.80;;;;;;5092893;28;20212;-80
2022/04/03 12:37:09;;;;;;;1.80;1.00;;;9.00;96.90;;;;;;5092832;28;20334;-85
2022/04/03 12:39:38;;;;;;;1.33;0.77;;;8.70;97.50;;;;;;5092507;28;20275;-81
2022/04/03 12:42:20;;;;;;;2.23;1.10;;;8.60;97.10;;;;;;5092663;28;20213;-85
2022/04/03 12:44:57;;;;;;;5.13;1.40;;;8.60;97.60;;;;;;5092715;28;20204;-83
2022/04/03 12:47:31;;;;;;;1.37;1.00;;;8.60;97.50;;;;;;5092465;28;20556;-81
2022/04/03 12:50:19;;;;;;;0.80;0.80;;;8.40;97.50;;;;;;5100823;28;20192;-87
2022/04/03 12:52:51;;;;;;;1.17;1.13;;;8.50;98.50;;;;;;5106639;28;20281;-81
2022/04/03 12:55:41;;;;;;;1.83;1.20;;;8.40;99.70;;;;;;5111455;28;20197;-80
2022/04/03 12:58:29;;;;;;;5.60;1.33;;;8.10;99.90;;;;;;5097718;28;20655;-80
2022/04/03 13:01:12;;;;;;;7.07;1.50;;;8.20;99.90;;;;;;5096803;28;20193;-84
2022/04/03 13:03:44;;;;;;;2.17;1.80;;;8.20;99.90;;;;;;5109914;28;20196;-82
2022/04/03 13:06:14;;;;;;;1.70;1.60;;;8.20;99.90;;;;;;5116840;28;20203;-84
2022/04/03 13:08:45;;;;;;;2.70;1.70;;;8.00;99.90;;;;;;5100089;28;20296;-86
2022/04/03 13:11:12;;;;;;;4.43;1.80;;;7.90;99.90;;;;;;5096632;28;20219;-83
2022/04/03 13:13:41;;;;;;;2.13;1.70;;;8.00;99.90;;;;;;5096795;28;20212;-87